createdAt,value
2022-09-14T00:01:08.165Z,98748.50
2022-09-14T00:02:11.641Z,98742.63
2022-09-14T00:03:14.145Z,98740.94
2022-09-14T00:04:17.942Z,98733.13
2022-09-14T00:05:19.639Z,98741.97
2022-09-14T00:06:21.824Z,98741.13
2022-09-14T00:07:23.505Z,98744.59
2022-09-14T00:08:25.176Z,98739.75
2022-09-14T00:09:26.847Z,98738.44
2022-09-14T00:10:28.854Z,98737.09
2022-09-14T00:11:33.513Z,98726.63
2022-09-14T00:12:35.148Z,98740.81
2022-09-14T00:13:36.892Z,98732.50
2022-09-14T00:14:39.044Z,98742.38
2022-09-14T00:15:42.518Z,98667.06
2022-09-14T00:16:44.667Z,98738.09
2022-09-14T00:17:46.371Z,98736.75
2022-09-14T00:19:06.359Z,98739.94
2022-09-14T00:20:08.850Z,98738.00
2022-09-14T00:21:12.420Z,98721.13
2022-09-14T00:22:14.085Z,98743.88
2022-09-14T00:23:15.741Z,98739.84
2022-09-14T00:24:17.772Z,98737.97
2022-09-14T00:25:19.420Z,98740.38
2022-09-14T00:26:23.167Z,98741.19
2022-09-14T00:27:24.860Z,98751.88
2022-09-14T00:28:26.494Z,98741.94
2022-09-14T00:29:28.689Z,98745.97
2022-09-14T00:30:30.455Z,98737.34
2022-09-14T00:31:34.899Z,98734.94
2022-09-14T00:32:36.754Z,98742.63
2022-09-14T00:33:38.622Z,98745.16
2022-09-14T00:34:40.287Z,98740.38
2022-09-14T00:35:42.440Z,98740.66
2022-09-14T00:36:47.545Z,98725.91
2022-09-14T00:37:51.166Z,98742.34
2022-09-14T00:38:56.774Z,98741.75
2022-09-14T00:39:58.545Z,98738.56
2022-09-14T00:41:01.013Z,98731.59
2022-09-14T00:42:05.540Z,98731.00
2022-09-14T00:43:15.155Z,98734.03
2022-09-14T00:44:16.750Z,98726.81
2022-09-14T00:45:21.829Z,98734.81
2022-09-14T00:46:25.387Z,98739.25
2022-09-14T00:47:29.512Z,98734.91
2022-09-14T00:48:31.243Z,98741.53
2022-09-14T00:49:41.316Z,98721.31
2022-09-14T00:50:43.330Z,98745.59
2022-09-14T00:51:55.980Z,98750.03
2022-09-14T00:52:57.640Z,98746.06
2022-09-14T00:54:02.456Z,98747.38
2022-09-14T00:55:09.345Z,98742.81
2022-09-14T00:56:11.153Z,98743.06
2022-09-14T00:57:14.432Z,98747.84
2022-09-14T00:58:16.157Z,98754.78
2022-09-14T00:59:23.207Z,98750.50
2022-09-14T01:00:28.086Z,98733.53
2022-09-14T01:01:29.795Z,98754.16
2022-09-14T01:02:31.745Z,98754.16
2022-09-14T01:03:33.600Z,98753.06
2022-09-14T01:04:36.732Z,98745.59
2022-09-14T01:05:54.027Z,98767.56
2022-09-14T01:07:16.240Z,98763.22
2022-09-14T01:08:23.906Z,98761.59
2022-09-14T01:09:38.300Z,98772.03
2022-09-14T01:11:04.484Z,98760.19
2022-09-14T01:12:15.790Z,98764.72
2022-09-14T01:13:29.039Z,98766.25
2022-09-14T01:14:44.944Z,98768.13
2022-09-14T01:16:43.944Z,98772.16
2022-09-14T01:18:04.603Z,98759.34
2022-09-14T01:19:45.651Z,98758.09
2022-09-14T01:21:20.676Z,98752.72
2022-09-14T01:22:28.248Z,98760.47
2022-09-14T01:23:36.416Z,98763.72
2022-09-14T01:24:48.120Z,98750.81
2022-09-14T01:26:01.686Z,98756.44
2022-09-14T01:27:06.319Z,98762.06
2022-09-14T01:28:23.940Z,98755.63
2022-09-14T01:29:40.755Z,98754.88
2022-09-14T01:30:43.715Z,98750.59
2022-09-14T01:32:04.094Z,98752.13
2022-09-14T01:33:11.752Z,98751.31
2022-09-14T01:34:31.843Z,98749.13
2022-09-14T01:35:42.764Z,98749.69
2022-09-14T01:36:49.226Z,98746.81
2022-09-14T01:38:03.314Z,98734.63
2022-09-14T01:39:07.047Z,98755.88
2022-09-14T01:40:33.491Z,98758.28
2022-09-14T01:41:36.455Z,98751.59
2022-09-14T01:42:42.987Z,98763.28
2022-09-14T01:43:50.049Z,98763.06
2022-09-14T01:44:56.738Z,98764.19
2022-09-14T01:46:06.658Z,98754.91
2022-09-14T01:47:22.250Z,98762.91
2022-09-14T01:48:32.003Z,98761.84
2022-09-14T01:49:41.533Z,98764.50
2022-09-14T01:50:56.920Z,98757.59
2022-09-14T01:52:04.082Z,98764.97
2022-09-14T01:53:17.868Z,98756.66
2022-09-14T01:54:30.127Z,98755.84
2022-09-14T01:55:54.386Z,98766.50
2022-09-14T01:57:00.261Z,98764.63
2022-09-14T01:58:09.454Z,98770.91
2022-09-14T01:59:16.793Z,98759.16
2022-09-14T02:00:21.241Z,98764.00
2022-09-14T02:01:37.956Z,98761.88
2022-09-14T02:02:44.906Z,98748.53
2022-09-14T02:03:55.773Z,98763.50
2022-09-14T02:05:21.948Z,98761.88
2022-09-14T02:06:36.108Z,98770.44
2022-09-14T02:07:38.864Z,98767.53
2022-09-14T02:08:41.313Z,98765.59
2022-09-14T02:09:43.802Z,98761.88
2022-09-14T02:10:45.606Z,98761.50
2022-09-14T02:11:47.570Z,98747.94
2022-09-14T02:12:49.292Z,98765.16
2022-09-14T02:13:51.091Z,98774.47
2022-09-14T02:14:54.382Z,98760.88
2022-09-14T02:15:56.342Z,98763.59
2022-09-14T02:16:58.590Z,98751.13
2022-09-14T02:18:00.263Z,98768.19
2022-09-14T02:19:02.591Z,98755.50
2022-09-14T02:20:08.342Z,98764.16
2022-09-14T02:21:18.362Z,98746.38
2022-09-14T02:22:20.113Z,98738.66
2022-09-14T02:23:22.381Z,98741.88
2022-09-14T02:24:24.111Z,98767.91
2022-09-14T02:25:25.816Z,98758.13
2022-09-14T02:26:28.415Z,98762.16
2022-09-14T02:27:30.059Z,98769.91
2022-09-14T02:28:31.791Z,98762.97
2022-09-14T02:29:34.031Z,98774.19
2022-09-14T02:30:50.006Z,98754.59
2022-09-14T02:32:07.009Z,98769.09
2022-09-14T02:33:21.157Z,98761.13
2022-09-14T02:34:44.656Z,98773.38
2022-09-14T02:35:52.200Z,98764.25
2022-09-14T02:37:08.846Z,98756.69
2022-09-14T02:38:16.215Z,98759.13
2022-09-14T02:39:31.378Z,98751.06
2022-09-14T02:40:35.832Z,98770.34
2022-09-14T02:41:48.959Z,98754.75
2022-09-14T02:42:50.973Z,98771.16
2022-09-14T02:44:04.858Z,98752.34
2022-09-14T02:45:55.813Z,98766.03
2022-09-14T02:47:21.318Z,98772.63
2022-09-14T02:48:28.608Z,98769.19
2022-09-14T02:49:44.675Z,98781.06
2022-09-14T02:50:49.940Z,98762.81
2022-09-14T02:52:23.198Z,98780.91
2022-09-14T02:53:33.869Z,98775.34
2022-09-14T02:54:50.642Z,98768.88
2022-09-14T02:55:57.504Z,98774.50
2022-09-14T02:57:03.907Z,98779.09
2022-09-14T02:58:11.525Z,98774.69
2022-09-14T02:59:13.216Z,98771.81
2022-09-14T03:00:15.090Z,98773.09
2022-09-14T03:01:19.448Z,98766.44
2022-09-14T03:02:21.901Z,98775.16
2022-09-14T03:03:23.604Z,98756.94
2022-09-14T03:04:25.384Z,98775.75
2022-09-14T03:05:27.649Z,98749.91
2022-09-14T03:06:29.350Z,98772.78
2022-09-14T03:07:31.031Z,98774.91
2022-09-14T03:08:33.281Z,98775.38
2022-09-14T03:09:35.060Z,98774.91
2022-09-14T03:10:37.724Z,98770.88
2022-09-14T03:11:39.377Z,98771.94
2022-09-14T03:12:41.259Z,98756.63
2022-09-14T03:13:42.930Z,98766.19
2022-09-14T03:14:44.621Z,98774.59
2022-09-14T03:15:46.703Z,98715.88
2022-09-14T03:16:48.438Z,98766.38
2022-09-14T03:17:51.165Z,98768.16
2022-09-14T03:18:52.833Z,98769.66
2022-09-14T03:19:54.885Z,98771.94
2022-09-14T03:21:04.277Z,98771.34
2022-09-14T03:22:06.095Z,98760.19
2022-09-14T03:23:09.245Z,98763.97
2022-09-14T03:24:11.225Z,98765.72
2022-09-14T03:25:14.224Z,98767.56
2022-09-14T03:26:19.158Z,98761.81
2022-09-14T03:27:20.785Z,98762.94
2022-09-14T03:28:22.454Z,98764.31
2022-09-14T03:29:24.138Z,98764.16
2022-09-14T03:30:27.929Z,98763.94
2022-09-14T03:31:29.687Z,98764.53
2022-09-14T03:32:32.470Z,98745.38
2022-09-14T03:33:34.585Z,98747.78
2022-09-14T03:34:36.265Z,98768.25
2022-09-14T03:35:37.930Z,98765.34
2022-09-14T03:36:39.635Z,98757.50
2022-09-14T03:37:42.703Z,98767.44
2022-09-14T03:38:52.563Z,98762.03
2022-09-14T03:39:54.399Z,98766.75
2022-09-14T03:40:59.888Z,98762.22
2022-09-14T03:42:01.561Z,98760.50
2022-09-14T03:43:03.244Z,98766.34
2022-09-14T03:44:04.958Z,98747.78
2022-09-14T03:45:07.301Z,98772.47
2022-09-14T03:46:15.101Z,98769.94
2022-09-14T03:47:16.828Z,98771.06
2022-09-14T03:48:18.602Z,98775.91
2022-09-14T03:49:20.259Z,98752.25
2022-09-14T03:50:21.918Z,98774.41
2022-09-14T03:51:24.146Z,98774.88
2022-09-14T03:52:25.789Z,98770.59
2022-09-14T03:53:27.857Z,98774.88
2022-09-14T03:54:29.656Z,98773.81
2022-09-14T03:55:31.313Z,98773.34
2022-09-14T03:56:33.048Z,98748.09
2022-09-14T03:57:34.918Z,98773.34
2022-09-14T03:58:37.311Z,98776.59
2022-09-14T03:59:43.469Z,98775.91
2022-09-14T04:00:45.857Z,98774.63
2022-09-14T04:01:47.994Z,98761.25
2022-09-14T04:02:50.284Z,98775.78
2022-09-14T04:03:52.383Z,98782.72
2022-09-14T04:04:54.041Z,98780.88
2022-09-14T04:05:56.669Z,98788.59
2022-09-14T04:06:58.325Z,98783.53
2022-09-14T04:08:00.031Z,98762.53
2022-09-14T04:09:01.834Z,98787.22
2022-09-14T04:10:05.756Z,98785.16
2022-09-14T04:11:10.065Z,98780.59
2022-09-14T04:12:11.824Z,98780.88
2022-09-14T04:13:13.494Z,98783.03
2022-09-14T04:14:15.734Z,98788.28
2022-09-14T04:15:17.530Z,98782.53
2022-09-14T04:16:21.196Z,98778.25
2022-09-14T04:17:25.362Z,98777.13
2022-09-14T04:18:27.268Z,98762.69
2022-09-14T04:19:28.915Z,98780.56
2022-09-14T04:20:30.602Z,98789.59
2022-09-14T04:21:32.889Z,98773.16
2022-09-14T04:22:34.785Z,98778.84
2022-09-14T04:23:56.635Z,98782.44
2022-09-14T04:24:58.527Z,98733.63
2022-09-14T04:26:00.596Z,98786.69
2022-09-14T04:27:02.261Z,98762.44
2022-09-14T04:28:19.654Z,98777.41
2022-09-14T04:29:22.440Z,98781.53
2022-09-14T04:30:24.248Z,98776.84
2022-09-14T04:31:26.388Z,98786.50
2022-09-14T04:32:33.564Z,98760.59
2022-09-14T04:33:37.068Z,98782.75
2022-09-14T04:34:38.683Z,98778.19
2022-09-14T04:35:40.372Z,98781.94
2022-09-14T04:36:42.498Z,98788.28
2022-09-14T04:37:44.164Z,98789.31
2022-09-14T04:38:46.769Z,98781.47
2022-09-14T04:39:48.475Z,98783.09
2022-09-14T04:40:50.271Z,98791.28
2022-09-14T04:41:52.149Z,98767.63
2022-09-14T04:42:53.802Z,98788.81
2022-09-14T04:43:56.785Z,98802.97
2022-09-14T04:44:58.452Z,98797.81
2022-09-14T04:46:08.852Z,98800.38
2022-09-14T04:47:10.576Z,98793.00
2022-09-14T04:48:12.357Z,98799.25
2022-09-14T04:49:18.971Z,98764.53
2022-09-14T04:50:20.741Z,98792.00
2022-09-14T04:51:25.409Z,98782.94
2022-09-14T04:52:27.128Z,98793.50
2022-09-14T04:53:28.784Z,98797.88
2022-09-14T04:54:30.465Z,98793.72
2022-09-14T04:55:32.131Z,98798.59
2022-09-14T04:56:37.068Z,98799.47
2022-09-14T04:57:38.828Z,98794.97
2022-09-14T04:58:51.608Z,98792.53
2022-09-14T04:59:53.604Z,98799.56
2022-09-14T05:01:06.747Z,98797.41
2022-09-14T05:02:08.510Z,98798.97
2022-09-14T05:03:10.328Z,98798.13
2022-09-14T05:04:12.524Z,98795.41
2022-09-14T05:05:14.474Z,98789.13
2022-09-14T05:06:22.118Z,98793.91
2022-09-14T05:07:23.795Z,98796.78
2022-09-14T05:08:25.445Z,98803.16
2022-09-14T05:09:27.084Z,98793.59
2022-09-14T05:10:28.876Z,98792.31
2022-09-14T05:11:33.695Z,98796.88
2022-09-14T05:12:35.403Z,98799.78
2022-09-14T05:13:37.091Z,98779.72
2022-09-14T05:14:38.760Z,98796.25
2022-09-14T05:15:40.465Z,98799.56
2022-09-14T05:16:43.679Z,98792.72
2022-09-14T05:17:45.351Z,98782.16
2022-09-14T05:18:47.714Z,98789.16
2022-09-14T05:19:49.358Z,98788.63
2022-09-14T05:20:51.013Z,98786.97
2022-09-14T05:21:52.714Z,98787.34
2022-09-14T05:22:54.356Z,98786.72
2022-09-14T05:23:58.724Z,98793.19
2022-09-14T05:25:00.395Z,98796.28
2022-09-14T05:26:02.111Z,98793.44
2022-09-14T05:27:03.975Z,98782.00
2022-09-14T05:28:05.631Z,98796.03
2022-09-14T05:29:07.390Z,98794.47
2022-09-14T05:30:09.657Z,98794.28
2022-09-14T05:31:13.304Z,98792.75
2022-09-14T05:32:15.046Z,98796.13
2022-09-14T05:33:16.748Z,98788.66
2022-09-14T05:34:18.510Z,98776.84
2022-09-14T05:35:20.254Z,98805.03
2022-09-14T05:36:22.346Z,98800.63
2022-09-14T05:37:24.066Z,98803.53
2022-09-14T05:38:25.748Z,98798.84
2022-09-14T05:39:27.403Z,98804.06
2022-09-14T05:40:29.159Z,98803.75
2022-09-14T05:41:30.913Z,98805.75
2022-09-14T05:42:32.556Z,98774.38
2022-09-14T05:43:34.409Z,98807.75
2022-09-14T05:44:36.044Z,98805.38
2022-09-14T05:45:37.680Z,98809.75
2022-09-14T05:46:40.461Z,98798.34
2022-09-14T05:47:42.223Z,98808.94
2022-09-14T05:48:44.254Z,98802.75
2022-09-14T05:49:46.013Z,98806.28
2022-09-14T05:50:48.202Z,98807.50
2022-09-14T05:51:49.831Z,98810.53
2022-09-14T05:52:51.682Z,98810.66
2022-09-14T05:53:56.018Z,98814.78
2022-09-14T05:54:57.680Z,98812.06
2022-09-14T05:56:05.015Z,98796.69
2022-09-14T05:57:06.884Z,98814.25
2022-09-14T05:58:08.645Z,98803.66
2022-09-14T05:59:10.987Z,98817.72
2022-09-14T06:00:13.290Z,98816.91
2022-09-14T06:01:21.029Z,98814.16
2022-09-14T06:02:22.824Z,98811.09
2022-09-14T06:03:25.410Z,98811.47
2022-09-14T06:04:27.211Z,98812.47
2022-09-14T06:05:29.033Z,98820.72
2022-09-14T06:06:32.754Z,98816.81
2022-09-14T06:07:34.457Z,98806.06
2022-09-14T06:08:36.739Z,98826.69
2022-09-14T06:09:38.387Z,98817.28
2022-09-14T06:10:40.750Z,98823.47
2022-09-14T06:11:42.615Z,98824.19
2022-09-14T06:12:44.393Z,98828.28
2022-09-14T06:13:47.017Z,98829.56
2022-09-14T06:14:48.691Z,98825.91
2022-09-14T06:15:50.346Z,98824.44
2022-09-14T06:16:52.003Z,98824.50
2022-09-14T06:17:53.681Z,98808.75
2022-09-14T06:18:57.001Z,98818.25
2022-09-14T06:20:03.511Z,98824.53
2022-09-14T06:21:07.325Z,98828.00
2022-09-14T06:22:08.984Z,98810.19
2022-09-14T06:23:10.725Z,98833.59
2022-09-14T06:24:12.860Z,98828.75
2022-09-14T06:25:14.568Z,98817.06
2022-09-14T06:26:16.773Z,98836.13
2022-09-14T06:27:18.461Z,98847.97
2022-09-14T06:28:20.118Z,98834.78
2022-09-14T06:29:21.814Z,98841.75
2022-09-14T06:30:23.509Z,98805.03
2022-09-14T06:31:25.683Z,98830.59
2022-09-14T06:32:30.924Z,98836.00
2022-09-14T06:33:32.609Z,98841.47
2022-09-14T06:34:34.245Z,98849.09
2022-09-14T06:35:35.922Z,98831.69
2022-09-14T06:36:37.618Z,98846.34
2022-09-14T06:37:39.373Z,98845.94
2022-09-14T06:38:42.118Z,98847.03
2022-09-14T06:39:43.792Z,98848.84
2022-09-14T06:40:59.442Z,98850.84
2022-09-14T06:42:01.151Z,98851.41
2022-09-14T06:43:03.053Z,98845.25
2022-09-14T06:44:04.779Z,98837.06
2022-09-14T06:45:07.104Z,98853.41
2022-09-14T06:46:32.399Z,98855.94
2022-09-14T06:47:34.510Z,98846.56
2022-09-14T06:48:39.365Z,98846.69
2022-09-14T06:49:41.077Z,98847.06
2022-09-14T06:50:42.737Z,98848.94
2022-09-14T06:51:46.927Z,98847.66
2022-09-14T06:52:48.645Z,98850.16
2022-09-14T06:53:51.288Z,98851.53
2022-09-14T06:54:52.938Z,98857.44
2022-09-14T06:55:59.229Z,98848.56
2022-09-14T06:57:00.886Z,98850.91
2022-09-14T06:58:03.135Z,98833.41
2022-09-14T06:59:06.500Z,98844.69
2022-09-14T07:00:09.086Z,98848.41
2022-09-14T07:01:13.056Z,98845.81
2022-09-14T07:02:14.812Z,98852.31
2022-09-14T07:03:16.587Z,98853.88
2022-09-14T07:04:18.832Z,98842.81
2022-09-14T07:05:22.412Z,98844.47
2022-09-14T07:06:30.279Z,98856.69
2022-09-14T07:07:31.989Z,98852.00
2022-09-14T07:08:34.987Z,98842.50
2022-09-14T07:09:37.797Z,98847.88
2022-09-14T07:10:40.217Z,98853.81
2022-09-14T07:11:42.919Z,98842.81
2022-09-14T07:12:44.902Z,98842.47
2022-09-14T07:13:48.729Z,98846.38
2022-09-14T07:14:50.464Z,98844.34
2022-09-14T07:15:52.205Z,98849.28
2022-09-14T07:16:53.849Z,98849.56
2022-09-14T07:17:55.803Z,98840.94
2022-09-14T07:18:59.531Z,98841.69
2022-09-14T07:20:01.692Z,98840.47
2022-09-14T07:21:07.324Z,98837.59
2022-09-14T07:22:08.979Z,98838.09
2022-09-14T07:23:13.188Z,98839.22
2022-09-14T07:24:17.929Z,98846.66
2022-09-14T07:25:19.593Z,98841.38
2022-09-14T07:26:32.433Z,98831.38
2022-09-14T07:27:34.492Z,98823.94
2022-09-14T07:28:37.419Z,98827.91
2022-09-14T07:29:39.098Z,98837.84
2022-09-14T07:30:41.683Z,98840.06
2022-09-14T07:31:51.890Z,98828.34
2022-09-14T07:32:54.328Z,98809.19
2022-09-14T07:33:57.996Z,98820.50
2022-09-14T07:34:59.649Z,98824.06
2022-09-14T07:36:09.187Z,98827.84
2022-09-14T07:37:10.870Z,98829.28
2022-09-14T07:38:12.530Z,98824.03
2022-09-14T07:39:17.434Z,98822.03
2022-09-14T07:40:19.134Z,98832.56
2022-09-14T07:41:23.544Z,98825.31
2022-09-14T07:42:25.219Z,98819.59
2022-09-14T07:43:28.560Z,98806.09
2022-09-14T07:44:30.282Z,98813.56
2022-09-14T07:45:32.283Z,98814.63
2022-09-14T07:46:40.262Z,98814.31
2022-09-14T07:47:41.952Z,98816.53
2022-09-14T07:48:43.847Z,98816.00
2022-09-14T07:49:45.665Z,98814.41
2022-09-14T07:50:47.556Z,98816.16
2022-09-14T07:51:49.325Z,98814.28
2022-09-14T07:52:51.839Z,98809.69
2022-09-14T07:53:54.065Z,98806.25
2022-09-14T07:54:56.287Z,98807.13
2022-09-14T07:56:02.215Z,98805.06
2022-09-14T07:57:04.002Z,98801.38
2022-09-14T07:58:05.937Z,98798.16
2022-09-14T07:59:33.532Z,98801.66
2022-09-14T08:00:29.464Z,98801.13
2022-09-14T08:01:31.626Z,98802.56
2022-09-14T08:02:34.776Z,98791.78
2022-09-14T08:03:36.612Z,98809.41
2022-09-14T08:04:41.049Z,98801.72
2022-09-14T08:05:42.702Z,98793.28
2022-09-14T08:06:44.504Z,98798.06
2022-09-14T08:07:46.189Z,98796.75
2022-09-14T08:08:49.919Z,98802.31
2022-09-14T08:09:51.571Z,98783.50
2022-09-14T08:10:53.313Z,98786.66
2022-09-14T08:11:54.964Z,98806.34
2022-09-14T08:12:56.717Z,98798.34
2022-09-14T08:14:00.634Z,98801.16
2022-09-14T08:15:02.289Z,98797.81
2022-09-14T08:16:06.165Z,98798.94
2022-09-14T08:17:08.134Z,98793.75
2022-09-14T08:18:11.244Z,98791.50
2022-09-14T08:19:17.295Z,98797.06
2022-09-14T08:20:19.399Z,98794.56
2022-09-14T08:21:21.359Z,98788.56
2022-09-14T08:22:23.089Z,98790.03
2022-09-14T08:23:25.529Z,98794.19
2022-09-14T08:24:27.372Z,98794.72
2022-09-14T08:25:29.181Z,98797.66
2022-09-14T08:26:31.599Z,98789.53
2022-09-14T08:27:33.302Z,98803.44
2022-09-14T08:28:36.603Z,98803.53
2022-09-14T08:29:39.725Z,98804.00
2022-09-14T08:30:41.685Z,98799.28
2022-09-14T08:31:45.815Z,98799.66
2022-09-14T08:32:47.684Z,98799.69
2022-09-14T08:33:51.843Z,98799.69
2022-09-14T08:34:53.553Z,98809.53
2022-09-14T08:35:57.901Z,98786.31
2022-09-14T08:37:00.035Z,98797.78
2022-09-14T08:38:01.699Z,98797.38
2022-09-14T08:39:04.502Z,98791.84
2022-09-14T08:40:06.661Z,98795.78
2022-09-14T08:41:17.357Z,98787.94
2022-09-14T08:42:21.009Z,98793.41
2022-09-14T08:43:26.126Z,98787.13
2022-09-14T08:44:40.708Z,98782.38
2022-09-14T08:45:43.878Z,98757.91
2022-09-14T08:46:53.944Z,98793.38
2022-09-14T08:47:58.009Z,98791.75
2022-09-14T08:49:01.777Z,98788.59
2022-09-14T08:50:17.385Z,98782.28
2022-09-14T08:51:19.323Z,98788.25
2022-09-14T08:52:34.246Z,98782.34
2022-09-14T08:53:39.613Z,98779.97
2022-09-14T08:54:41.357Z,98786.28
2022-09-14T08:55:49.075Z,98774.53
2022-09-14T08:57:01.789Z,98777.28
2022-09-14T08:58:53.815Z,98780.06
2022-09-14T09:00:13.482Z,98785.56
2022-09-14T09:01:33.765Z,98781.19
2022-09-14T09:03:09.720Z,98772.53
2022-09-14T09:04:11.374Z,98775.69
2022-09-14T09:05:34.857Z,98767.81
2022-09-14T09:07:01.246Z,98772.13
2022-09-14T09:08:21.764Z,98761.13
2022-09-14T09:09:34.844Z,98752.47
2022-09-14T09:10:40.237Z,98760.31
2022-09-14T09:11:44.875Z,98763.50
2022-09-14T09:12:52.774Z,98768.19
2022-09-14T09:13:56.196Z,98767.41
2022-09-14T09:15:01.369Z,98750.47
2022-09-14T09:16:06.855Z,98763.50
2022-09-14T09:17:46.274Z,98755.97
2022-09-14T09:18:51.845Z,98760.28
2022-09-14T09:20:08.641Z,98749.59
2022-09-14T09:21:18.289Z,98746.81
2022-09-14T09:22:23.493Z,98744.78
2022-09-14T09:23:28.352Z,98747.09
2022-09-14T09:24:37.539Z,98746.38
2022-09-14T09:25:59.524Z,98747.25
2022-09-14T09:27:01.345Z,98742.94
2022-09-14T09:28:12.971Z,98730.31
2022-09-14T09:29:14.777Z,98738.94
2022-09-14T09:30:17.445Z,98740.53
2022-09-14T09:31:26.645Z,98747.22
2022-09-14T09:32:28.356Z,98744.06
2022-09-14T09:33:30.599Z,98738.91
2022-09-14T09:34:35.012Z,98733.34
2022-09-14T09:35:36.692Z,98729.41
2022-09-14T09:36:41.816Z,98734.97
2022-09-14T09:37:43.488Z,98732.22
2022-09-14T09:38:45.193Z,98727.81
2022-09-14T09:39:47.229Z,98731.44
2022-09-14T09:40:54.197Z,98733.44
2022-09-14T09:42:08.111Z,98729.97
2022-09-14T09:43:24.443Z,98722.09
2022-09-14T09:45:04.089Z,98726.44
2022-09-14T09:46:08.101Z,98715.75
2022-09-14T09:47:09.883Z,98711.78
2022-09-14T09:48:11.890Z,98715.72
2022-09-14T09:49:23.781Z,98712.19
2022-09-14T09:50:26.389Z,98706.66
2022-09-14T09:51:31.062Z,98708.97
2022-09-14T09:52:33.247Z,98708.97
2022-09-14T09:53:38.807Z,98705.81
2022-09-14T09:54:43.302Z,98710.13
2022-09-14T09:55:49.517Z,98707.38
2022-09-14T09:57:01.153Z,98706.22
2022-09-14T09:58:33.600Z,98718.38
2022-09-14T09:59:46.547Z,98700.66
2022-09-14T10:01:11.620Z,98716.06
2022-09-14T10:02:31.839Z,98712.09
2022-09-14T10:03:38.859Z,98713.69
2022-09-14T10:04:58.765Z,98705.41
2022-09-14T10:06:07.403Z,98705.41
2022-09-14T10:07:21.497Z,98702.31
2022-09-14T10:08:23.201Z,98704.28
2022-09-14T10:09:27.748Z,98707.00
2022-09-14T10:10:35.396Z,98705.03
2022-09-14T10:11:38.378Z,98710.56
2022-09-14T10:12:47.325Z,98697.91
2022-09-14T10:13:49.052Z,98697.22
2022-09-14T10:15:02.988Z,98704.66
2022-09-14T10:16:17.661Z,98693.25
2022-09-14T10:17:21.451Z,98699.91
2022-09-14T10:18:30.719Z,98697.06
2022-09-14T10:19:33.577Z,98680.16
2022-09-14T10:20:56.295Z,98692.44
2022-09-14T10:22:05.035Z,98693.19
2022-09-14T10:23:18.736Z,98696.41
2022-09-14T10:24:21.254Z,98692.41
2022-09-14T10:25:26.433Z,98692.84
2022-09-14T10:26:33.575Z,98683.84
2022-09-14T10:27:46.186Z,98700.78
2022-09-14T10:28:49.949Z,98673.22
2022-09-14T10:29:56.028Z,98690.09
2022-09-14T10:31:12.862Z,98699.97
2022-09-14T10:32:25.597Z,98698.78
2022-09-14T10:33:27.614Z,98692.84
2022-09-14T10:34:29.457Z,98687.72
2022-09-14T10:35:57.745Z,98687.69
2022-09-14T10:37:29.664Z,98684.88
2022-09-14T10:38:32.153Z,98679.75
2022-09-14T10:39:46.272Z,98680.94
2022-09-14T10:40:58.064Z,98671.50
2022-09-14T10:42:27.591Z,98679.34
2022-09-14T10:44:10.878Z,98681.25
2022-09-14T10:45:28.359Z,98675.03
2022-09-14T10:46:36.384Z,98664.06
2022-09-14T10:47:45.788Z,98673.13
2022-09-14T10:48:53.704Z,98678.28
2022-09-14T10:50:01.284Z,98675.16
2022-09-14T10:51:21.220Z,98666.88
2022-09-14T10:53:06.968Z,98669.34
2022-09-14T10:54:27.219Z,98664.22
2022-09-14T10:55:51.518Z,98663.41
2022-09-14T10:57:13.215Z,98663.03
2022-09-14T10:58:21.202Z,98672.09
2022-09-14T10:59:51.034Z,98661.88
2022-09-14T11:01:14.966Z,98660.66
2022-09-14T11:02:22.390Z,98655.53
2022-09-14T11:03:36.117Z,98659.09
2022-09-14T11:04:58.662Z,98653.97
2022-09-14T11:06:00.314Z,98653.56
2022-09-14T11:07:16.815Z,98655.19
2022-09-14T11:08:30.672Z,98659.50
2022-09-14T11:09:38.602Z,98656.72
2022-09-14T11:11:14.018Z,98655.56
2022-09-14T11:12:31.429Z,98649.69
2022-09-14T11:13:33.037Z,98655.13
2022-09-14T11:14:51.776Z,98645.28
2022-09-14T11:16:18.677Z,98646.47
2022-09-14T11:17:46.744Z,98660.94
2022-09-14T11:18:51.644Z,98655.38
2022-09-14T11:20:32.181Z,98648.53
2022-09-14T11:21:49.115Z,98653.56
2022-09-14T11:23:16.214Z,98660.59
2022-09-14T11:24:22.820Z,98649.81
2022-09-14T11:25:47.076Z,98634.47
2022-09-14T11:27:08.353Z,98642.38
2022-09-14T11:28:25.733Z,98632.84
2022-09-14T11:29:40.195Z,98635.31
2022-09-14T11:31:28.735Z,98642.38
2022-09-14T11:32:42.403Z,98644.34
2022-09-14T11:34:01.549Z,98631.84
2022-09-14T11:35:10.985Z,98638.94
2022-09-14T11:36:22.012Z,98627.97
2022-09-14T11:37:51.856Z,98624.72
2022-09-14T11:39:04.678Z,98633.78
2022-09-14T11:40:15.821Z,98626.28
2022-09-14T11:41:20.597Z,98615.34
2022-09-14T11:42:30.166Z,98617.72
2022-09-14T11:43:47.144Z,98611.81
2022-09-14T11:45:16.298Z,98610.28
2022-09-14T11:46:24.632Z,98599.69
2022-09-14T11:47:27.389Z,98604.72
2022-09-14T11:48:43.213Z,98606.72
2022-09-14T11:50:24.424Z,98607.53
2022-09-14T11:51:42.083Z,98611.78
2022-09-14T11:52:44.007Z,98603.06
2022-09-14T11:53:46.686Z,98610.13
2022-09-14T11:54:50.339Z,98612.88
2022-09-14T11:55:52.394Z,98608.16
2022-09-14T11:56:58.913Z,98605.41
2022-09-14T11:58:04.087Z,98610.91
2022-09-14T11:59:08.016Z,98606.91
2022-09-14T12:00:33.492Z,98608.06
2022-09-14T12:01:39.784Z,98605.22
2022-09-14T12:02:49.295Z,98590.19
2022-09-14T12:03:57.565Z,98596.34
2022-09-14T12:05:05.158Z,98593.13
2022-09-14T12:06:30.089Z,98590.69
2022-09-14T12:07:46.705Z,98600.44
2022-09-14T12:08:48.411Z,98601.78
2022-09-14T12:09:51.628Z,98595.63
2022-09-14T12:11:26.953Z,98580.13
2022-09-14T12:12:31.374Z,98573.59
2022-09-14T12:13:33.150Z,98569.16
2022-09-14T12:14:36.752Z,98583.34
2022-09-14T12:15:41.232Z,98579.44
2022-09-14T12:17:37.857Z,98583.94
2022-09-14T12:18:40.287Z,98583.03
2022-09-14T12:19:43.593Z,98576.66
2022-09-14T12:20:50.607Z,98568.66
2022-09-14T12:21:52.291Z,98576.00
2022-09-14T12:23:07.747Z,98555.09
2022-09-14T12:24:15.201Z,98563.41
2022-09-14T12:25:19.923Z,98568.84
2022-09-14T12:26:21.607Z,98560.97
2022-09-14T12:27:23.786Z,98556.22
2022-09-14T12:28:40.236Z,98548.28
2022-09-14T12:29:41.879Z,98549.88
2022-09-14T12:30:43.979Z,98549.38
2022-09-14T12:31:47.529Z,98549.63
2022-09-14T12:32:49.361Z,98539.63
2022-09-14T12:34:17.107Z,98541.56
2022-09-14T12:35:40.453Z,98549.31
2022-09-14T12:36:42.496Z,98541.91
2022-09-14T12:37:44.204Z,98545.44
2022-09-14T12:38:55.359Z,98561.13
2022-09-14T12:40:34.495Z,98551.34
2022-09-14T12:41:36.251Z,98555.28
2022-09-14T12:42:37.983Z,98563.91
2022-09-14T12:43:39.680Z,98554.91
2022-09-14T12:44:43.433Z,98559.38
2022-09-14T12:46:00.036Z,98552.47
2022-09-14T12:47:25.091Z,98557.66
2022-09-14T12:48:52.585Z,98558.09
2022-09-14T12:50:04.631Z,98566.00
2022-09-14T12:51:06.396Z,98561.25
2022-09-14T12:52:19.892Z,98566.94
2022-09-14T12:53:31.955Z,98561.66
2022-09-14T12:54:57.038Z,98560.28
2022-09-14T12:56:20.478Z,98564.78
2022-09-14T12:57:28.536Z,98557.44
2022-09-14T12:58:49.278Z,98575.63
2022-09-14T13:00:14.617Z,98576.06
2022-09-14T13:01:29.545Z,98573.38
2022-09-14T13:02:34.069Z,98574.91
2022-09-14T13:03:43.454Z,98575.53
2022-09-14T13:04:48.044Z,98575.47
2022-09-14T13:05:51.167Z,98577.03
2022-09-14T13:06:55.599Z,98566.44
2022-09-14T13:07:57.521Z,98572.91
2022-09-14T13:08:59.958Z,98567.50